Terminal Aerodrome Forecast
Issued by NWS Memphis, TN

Home | Current Version | Previous Version | Text Only | Print | Product List | Glossary On
Versions: 1 2 3 4 5 6 7 8 9 10 11 12 13 14 15 16 17 18
000
FTUS44 KMEG 180527
TAFJBR
TAF
KJBR 180527Z 1806/1906 00000KT P6SM SCT020
     FM181400 06003KT P6SM VCSH OVC035
     FM182100 08004KT P6SM OVC015
     FM190300 07004KT P6SM OVC003=

USA.gov is the U.S. government's official web portal to all federal, state and local government web resources and services.